createdAt,value
2023-04-29T00:01:31.560Z,4.23
2023-04-29T00:03:58.830Z,4.23
2023-04-29T00:06:26.302Z,4.24
2023-04-29T00:08:53.576Z,4.22
2023-04-29T00:11:20.790Z,4.20
2023-04-29T00:13:47.879Z,4.21
2023-04-29T00:16:15.051Z,4.14
2023-04-29T00:18:42.210Z,4.08
2023-04-29T00:21:09.217Z,4.02
2023-04-29T00:23:36.465Z,3.91
2023-04-29T00:26:03.688Z,3.89
2023-04-29T00:28:30.794Z,3.86
2023-04-29T00:30:58.154Z,3.83
2023-04-29T00:33:25.575Z,3.81
2023-04-29T00:35:53.020Z,3.78
2023-04-29T00:38:21.466Z,3.76
2023-04-29T00:40:48.820Z,3.74
2023-04-29T00:43:15.915Z,3.74
2023-04-29T00:45:43.850Z,3.73
2023-04-29T00:48:10.798Z,3.74
2023-04-29T00:50:37.998Z,3.74
2023-04-29T00:53:05.208Z,3.71
2023-04-29T00:55:34.086Z,3.64
2023-04-29T00:58:02.990Z,3.62
2023-04-29T01:00:30.644Z,3.67
2023-04-29T01:02:59.897Z,3.64
2023-04-29T01:05:27.862Z,3.63
2023-04-29T01:08:07.036Z,3.62
2023-04-29T01:10:59.491Z,3.62
2023-04-29T01:13:44.697Z,3.64
2023-04-29T01:16:21.658Z,3.64
2023-04-29T01:18:56.535Z,3.67
2023-04-29T01:21:28.408Z,3.70
2023-04-29T01:23:58.373Z,3.68
2023-04-29T01:26:32.448Z,3.73
2023-04-29T01:29:28.052Z,3.74
2023-04-29T01:32:13.825Z,3.74
2023-04-29T01:34:59.899Z,3.75
2023-04-29T01:37:49.644Z,3.77
2023-04-29T01:40:22.728Z,3.79
2023-04-29T01:43:12.008Z,3.77
2023-04-29T01:45:44.381Z,3.81
2023-04-29T01:48:13.130Z,3.80
2023-04-29T01:50:40.892Z,3.82
2023-04-29T01:53:11.939Z,3.82
2023-04-29T01:55:39.675Z,3.82
2023-04-29T01:58:36.341Z,3.81
2023-04-29T02:01:32.900Z,3.80
2023-04-29T02:04:00.245Z,3.83
2023-04-29T02:06:28.156Z,3.83
2023-04-29T02:08:59.572Z,3.83
2023-04-29T02:11:26.875Z,3.79
2023-04-29T02:13:56.859Z,3.80
2023-04-29T02:16:24.335Z,3.81
2023-04-29T02:19:09.058Z,3.81
2023-04-29T02:21:40.283Z,3.76
2023-04-29T02:24:07.448Z,3.78
2023-04-29T02:26:34.630Z,3.76
2023-04-29T02:29:01.778Z,3.75
2023-04-29T02:31:29.425Z,3.76
2023-04-29T02:33:57.000Z,3.77
2023-04-29T02:36:24.885Z,3.76
2023-04-29T02:38:55.408Z,3.80
2023-04-29T02:41:23.249Z,3.82
2023-04-29T02:43:50.289Z,3.81
2023-04-29T02:46:17.859Z,3.85
2023-04-29T02:48:45.364Z,3.85
2023-04-29T02:51:13.535Z,3.86
2023-04-29T02:53:40.668Z,3.84
2023-04-29T02:56:07.992Z,3.81
2023-04-29T02:58:35.020Z,3.76
2023-04-29T03:01:02.687Z,3.81
2023-04-29T03:03:29.978Z,3.79
2023-04-29T03:05:57.499Z,3.81
2023-04-29T03:08:24.475Z,3.81
2023-04-29T03:10:51.532Z,3.74
2023-04-29T03:13:19.478Z,3.68
2023-04-29T03:15:46.954Z,3.62
2023-04-29T03:18:14.126Z,3.60
2023-04-29T03:20:41.221Z,3.62
2023-04-29T03:23:08.143Z,3.63
2023-04-29T03:25:35.485Z,3.66
2023-04-29T03:28:02.779Z,3.69
2023-04-29T03:30:31.334Z,3.71
2023-04-29T03:32:58.712Z,3.72
2023-04-29T03:35:27.765Z,3.70
2023-04-29T03:38:15.023Z,3.65
2023-04-29T03:40:43.238Z,3.61
2023-04-29T03:43:10.569Z,3.56
2023-04-29T03:45:37.606Z,3.50
2023-04-29T03:48:06.680Z,3.43
2023-04-29T03:50:34.049Z,3.41
2023-04-29T03:53:01.063Z,3.38
2023-04-29T03:55:28.901Z,3.35
2023-04-29T03:57:56.121Z,3.37
2023-04-29T04:00:24.173Z,3.39
2023-04-29T04:02:54.906Z,3.43
2023-04-29T04:05:25.216Z,3.44
2023-04-29T04:07:57.250Z,3.45
2023-04-29T04:10:36.975Z,3.42
2023-04-29T04:13:11.107Z,3.37
2023-04-29T04:15:38.122Z,3.37
2023-04-29T04:18:05.478Z,3.37
2023-04-29T04:20:32.715Z,3.31
2023-04-29T04:22:59.684Z,3.32
2023-04-29T04:25:30.954Z,3.32
2023-04-29T04:28:10.776Z,3.31
2023-04-29T04:30:56.590Z,3.38
2023-04-29T04:33:23.595Z,3.45
2023-04-29T04:35:50.649Z,3.49
2023-04-29T04:38:17.808Z,3.56
2023-04-29T04:40:44.808Z,3.64
2023-04-29T04:43:32.049Z,3.69
2023-04-29T04:45:59.492Z,3.70
2023-04-29T04:48:26.682Z,3.66
2023-04-29T04:50:54.551Z,3.74
2023-04-29T04:53:22.633Z,3.81
2023-04-29T04:56:03.034Z,3.88
2023-04-29T04:58:32.749Z,3.94
2023-04-29T05:01:01.205Z,4.02
2023-04-29T05:03:28.692Z,4.02
2023-04-29T05:06:00.614Z,4.04
2023-04-29T05:08:28.651Z,4.02
2023-04-29T05:10:58.755Z,4.11
2023-04-29T05:13:26.085Z,4.11
2023-04-29T05:15:53.489Z,4.16
2023-04-29T05:18:26.865Z,4.15
2023-04-29T05:20:53.837Z,4.12
2023-04-29T05:23:20.806Z,4.14
2023-04-29T05:25:48.095Z,4.16
2023-04-29T05:28:17.123Z,4.18
2023-04-29T05:30:45.086Z,4.19
2023-04-29T05:33:12.464Z,4.24
2023-04-29T05:35:40.060Z,4.30
2023-04-29T05:38:07.493Z,4.34
2023-04-29T05:40:40.952Z,4.47
2023-04-29T05:43:25.447Z,4.57
2023-04-29T05:45:53.296Z,4.61
2023-04-29T05:48:20.245Z,4.61
2023-04-29T05:50:48.662Z,4.64
2023-04-29T05:53:15.684Z,4.70
2023-04-29T05:55:45.240Z,4.83
2023-04-29T05:58:13.485Z,4.90
2023-04-29T06:00:41.007Z,4.93
2023-04-29T06:03:15.005Z,4.95
2023-04-29T06:05:42.666Z,4.98
2023-04-29T06:08:28.013Z,5.03
2023-04-29T06:11:03.501Z,5.03
2023-04-29T06:13:31.128Z,5.03
2023-04-29T06:15:58.248Z,5.04
2023-04-29T06:18:26.123Z,5.12
2023-04-29T06:20:53.184Z,5.23
2023-04-29T06:23:20.525Z,5.34
2023-04-29T06:25:49.391Z,5.45
2023-04-29T06:28:17.964Z,5.52
2023-04-29T06:30:45.978Z,5.63
2023-04-29T06:33:14.075Z,5.76
2023-04-29T06:35:41.913Z,5.89
2023-04-29T06:38:27.411Z,6.08
2023-04-29T06:41:02.044Z,6.20
2023-04-29T06:43:48.949Z,6.36
2023-04-29T06:46:46.116Z,6.38
2023-04-29T06:49:18.010Z,6.47
2023-04-29T06:51:45.108Z,6.46
2023-04-29T06:54:12.366Z,6.49
2023-04-29T06:56:39.372Z,6.58
2023-04-29T06:59:06.360Z,6.70
2023-04-29T07:01:36.344Z,6.77
2023-04-29T07:04:03.799Z,6.82
2023-04-29T07:06:30.931Z,6.95
2023-04-29T07:08:57.943Z,7.06
2023-04-29T07:11:24.977Z,7.18
2023-04-29T07:13:55.421Z,7.36
2023-04-29T07:16:22.869Z,7.43
2023-04-29T07:18:50.037Z,7.40
2023-04-29T07:21:17.206Z,7.41
2023-04-29T07:23:44.250Z,7.59
2023-04-29T07:26:12.593Z,7.70
2023-04-29T07:28:39.937Z,7.74
2023-04-29T07:31:07.938Z,7.81
2023-04-29T07:33:35.892Z,7.88
2023-04-29T07:36:04.411Z,7.99
2023-04-29T07:38:31.855Z,7.99
2023-04-29T07:40:58.743Z,8.00
2023-04-29T07:43:25.834Z,7.96
2023-04-29T07:45:53.106Z,7.95
2023-04-29T07:48:21.423Z,8.11
2023-04-29T07:50:48.440Z,8.21
2023-04-29T07:53:18.306Z,8.31
2023-04-29T07:55:45.299Z,8.46
2023-04-29T07:58:12.597Z,8.56
2023-04-29T08:00:39.826Z,8.58
2023-04-29T08:03:07.014Z,8.61
2023-04-29T08:05:34.501Z,8.70
2023-04-29T08:08:01.768Z,8.76
2023-04-29T08:10:29.470Z,8.71
2023-04-29T08:12:56.410Z,8.66
2023-04-29T08:15:23.630Z,8.71
2023-04-29T08:17:51.102Z,8.83
2023-04-29T08:20:18.349Z,8.91
2023-04-29T08:22:45.361Z,8.90
2023-04-29T08:25:12.471Z,8.92
2023-04-29T08:27:39.499Z,9.07
2023-04-29T08:30:07.377Z,9.21
2023-04-29T08:32:35.479Z,9.32
2023-04-29T08:35:03.320Z,9.30
2023-04-29T08:37:30.535Z,9.34
2023-04-29T08:39:57.673Z,9.35
2023-04-29T08:42:35.156Z,9.46
2023-04-29T08:45:03.320Z,9.61
2023-04-29T08:47:33.218Z,9.61
2023-04-29T08:50:05.427Z,9.55
2023-04-29T08:52:33.266Z,9.40
2023-04-29T08:55:02.707Z,9.40
2023-04-29T08:57:33.133Z,9.61
2023-04-29T09:00:01.549Z,9.88
2023-04-29T09:02:30.359Z,10.26
2023-04-29T09:05:08.589Z,10.42
2023-04-29T09:07:36.532Z,10.31
2023-04-29T09:10:05.155Z,10.08
2023-04-29T09:12:32.254Z,9.87
2023-04-29T09:15:00.007Z,9.59
2023-04-29T09:17:47.400Z,9.35
2023-04-29T09:20:20.449Z,9.37
2023-04-29T09:22:48.715Z,9.53
2023-04-29T09:25:15.968Z,9.73
2023-04-29T09:27:42.987Z,10.14
2023-04-29T09:30:11.072Z,10.42
2023-04-29T09:32:39.380Z,10.53
2023-04-29T09:35:21.564Z,10.56
2023-04-29T09:37:48.809Z,10.69
2023-04-29T09:40:32.472Z,10.89
2023-04-29T09:43:00.699Z,10.85
2023-04-29T09:45:35.514Z,10.77
2023-04-29T09:48:06.544Z,10.66
2023-04-29T09:50:33.969Z,10.57
2023-04-29T09:53:01.337Z,10.71
2023-04-29T09:55:28.278Z,10.88
2023-04-29T09:57:56.028Z,11.20
2023-04-29T10:00:23.170Z,11.61
2023-04-29T10:02:51.218Z,11.76
2023-04-29T10:05:19.602Z,11.69
2023-04-29T10:07:48.744Z,11.54
2023-04-29T10:10:17.244Z,11.37
2023-04-29T10:12:45.206Z,11.18
2023-04-29T10:15:27.693Z,11.05
2023-04-29T10:18:16.571Z,10.98
2023-04-29T10:20:47.562Z,10.95
2023-04-29T10:23:15.923Z,10.98
2023-04-29T10:25:45.144Z,11.12
2023-04-29T10:28:16.970Z,11.33
2023-04-29T10:30:45.296Z,11.56
2023-04-29T10:33:12.372Z,11.66
2023-04-29T10:35:40.288Z,11.69
2023-04-29T10:38:17.866Z,11.64
2023-04-29T10:40:47.896Z,11.64
2023-04-29T10:43:15.778Z,11.72
2023-04-29T10:45:42.763Z,11.84
2023-04-29T10:48:14.322Z,11.91
2023-04-29T10:51:02.201Z,12.00
2023-04-29T10:53:30.236Z,12.06
2023-04-29T10:56:03.493Z,12.04
2023-04-29T10:58:36.283Z,11.95
2023-04-29T11:01:04.112Z,11.90
2023-04-29T11:04:00.689Z,11.98
2023-04-29T11:06:36.593Z,12.08
2023-04-29T11:09:12.117Z,12.07
2023-04-29T11:11:49.099Z,12.05
2023-04-29T11:14:22.099Z,12.13
2023-04-29T11:16:52.624Z,12.20
2023-04-29T11:19:21.092Z,12.27
2023-04-29T11:21:48.103Z,12.28
2023-04-29T11:24:18.351Z,12.41
2023-04-29T11:26:46.578Z,12.61
2023-04-29T11:29:14.870Z,12.79
2023-04-29T11:31:42.222Z,13.02
2023-04-29T11:34:09.264Z,13.17
2023-04-29T11:36:36.773Z,13.41
2023-04-29T11:39:05.157Z,13.59
2023-04-29T11:41:32.402Z,13.74
2023-04-29T11:44:01.263Z,13.83
2023-04-29T11:46:31.839Z,14.11
2023-04-29T11:49:00.373Z,14.43
2023-04-29T11:51:28.180Z,14.69
2023-04-29T11:53:58.003Z,15.08
2023-04-29T11:56:26.001Z,15.55
2023-04-29T11:58:58.111Z,15.89
2023-04-29T12:01:26.599Z,16.45
2023-04-29T12:03:59.522Z,16.78
2023-04-29T12:06:30.761Z,16.63
2023-04-29T12:09:01.569Z,16.50
2023-04-29T12:11:29.076Z,16.91
2023-04-29T12:13:58.257Z,17.30
2023-04-29T12:16:25.944Z,17.69
2023-04-29T12:18:53.885Z,18.57
2023-04-29T12:21:22.211Z,19.67
2023-04-29T12:23:49.138Z,20.63
2023-04-29T12:26:17.465Z,21.42
2023-04-29T12:28:44.439Z,22.10
2023-04-29T12:31:14.207Z,22.63
2023-04-29T12:33:46.669Z,22.98
2023-04-29T12:36:21.030Z,23.32
2023-04-29T12:38:49.273Z,23.84
2023-04-29T12:41:17.484Z,24.50
2023-04-29T12:43:44.880Z,25.13
2023-04-29T12:46:14.995Z,25.73
2023-04-29T12:48:43.884Z,26.45
2023-04-29T12:51:11.794Z,27.14
2023-04-29T12:53:39.763Z,27.52
2023-04-29T12:56:07.358Z,26.93
2023-04-29T12:58:35.093Z,25.62
2023-04-29T13:01:02.572Z,24.90
2023-04-29T13:03:29.973Z,25.13
2023-04-29T13:05:57.402Z,25.66
2023-04-29T13:08:24.461Z,25.94
2023-04-29T13:10:51.755Z,25.23
2023-04-29T13:13:19.185Z,23.90
2023-04-29T13:15:46.805Z,23.08
2023-04-29T13:18:13.859Z,23.49
2023-04-29T13:20:42.265Z,24.25
2023-04-29T13:23:12.152Z,25.15
2023-04-29T13:25:39.181Z,25.99
2023-04-29T13:28:07.505Z,26.60
2023-04-29T13:30:34.738Z,27.23
2023-04-29T13:33:09.711Z,27.67
2023-04-29T13:35:41.829Z,27.76
2023-04-29T13:38:09.230Z,27.65
2023-04-29T13:40:40.723Z,27.53
2023-04-29T13:43:13.884Z,27.47
2023-04-29T13:45:45.265Z,27.33
2023-04-29T13:48:37.451Z,26.99
2023-04-29T13:56:59.720Z,27.76
2023-04-29T14:03:50.549Z,28.41
2023-04-29T14:06:17.565Z,28.67
2023-04-29T14:08:45.158Z,28.97
2023-04-29T14:11:12.296Z,29.15
2023-04-29T14:13:41.099Z,29.03
2023-04-29T14:16:09.601Z,28.79
2023-04-29T14:18:36.648Z,28.51
2023-04-29T14:21:12.940Z,28.14
2023-04-29T14:23:41.383Z,26.55
2023-04-29T14:26:26.510Z,24.82
2023-04-29T14:28:57.905Z,22.94
2023-04-29T14:31:35.639Z,22.44
2023-04-29T14:34:02.775Z,22.76
2023-04-29T14:36:29.795Z,22.79
2023-04-29T14:38:56.855Z,22.44
2023-04-29T14:41:23.982Z,22.65
2023-04-29T14:43:51.379Z,22.78
2023-04-29T14:46:18.380Z,22.96
2023-04-29T14:48:45.775Z,22.79
2023-04-29T14:51:12.831Z,23.00
2023-04-29T14:53:39.888Z,23.47
2023-04-29T14:56:08.137Z,24.09
2023-04-29T14:58:35.185Z,24.63
2023-04-29T15:01:02.330Z,24.96
2023-04-29T15:03:29.368Z,24.95
2023-04-29T15:05:56.494Z,24.85
2023-04-29T15:08:23.585Z,25.02
2023-04-29T15:10:50.905Z,25.27
2023-04-29T15:13:17.879Z,25.48
2023-04-29T15:15:44.946Z,25.40
2023-04-29T15:18:11.976Z,25.12
2023-04-29T15:20:39.075Z,25.02
2023-04-29T15:23:06.729Z,24.94
2023-04-29T15:25:34.860Z,24.79
2023-04-29T15:28:04.966Z,24.73
2023-04-29T15:30:32.567Z,24.69
2023-04-29T15:33:00.075Z,24.64
2023-04-29T15:35:27.852Z,24.51
2023-04-29T15:37:55.115Z,24.24
2023-04-29T15:40:22.316Z,24.12
2023-04-29T15:42:49.364Z,24.09
2023-04-29T15:45:17.142Z,24.16
2023-04-29T15:47:44.347Z,24.19
2023-04-29T15:50:11.721Z,24.19
2023-04-29T15:52:38.789Z,24.21
2023-04-29T15:55:07.280Z,24.22
2023-04-29T15:57:34.985Z,24.15
2023-04-29T16:00:02.281Z,24.12
2023-04-29T16:02:32.432Z,24.02
2023-04-29T16:04:59.657Z,23.83
2023-04-29T16:07:26.632Z,23.41
2023-04-29T16:09:55.128Z,22.28
2023-04-29T16:12:22.933Z,21.14
2023-04-29T16:14:50.374Z,20.13
2023-04-29T16:17:17.539Z,19.17
2023-04-29T16:19:44.875Z,18.42
2023-04-29T16:22:11.888Z,17.88
2023-04-29T16:24:40.510Z,17.83
2023-04-29T16:27:07.607Z,17.92
2023-04-29T16:29:34.587Z,18.02
2023-04-29T16:32:01.499Z,17.86
2023-04-29T16:34:28.477Z,17.65
2023-04-29T16:36:55.578Z,17.36
2023-04-29T16:39:22.600Z,16.95
2023-04-29T16:41:49.558Z,16.66
2023-04-29T16:44:16.573Z,16.52
2023-04-29T16:46:44.731Z,16.41
2023-04-29T16:49:11.896Z,16.26
2023-04-29T16:51:38.886Z,16.05
2023-04-29T16:54:05.918Z,15.75
2023-04-29T16:56:33.032Z,15.45
2023-04-29T16:59:00.320Z,15.06
2023-04-29T17:01:28.463Z,14.64
2023-04-29T17:03:55.731Z,14.21
2023-04-29T17:06:23.911Z,13.83
2023-04-29T17:08:51.901Z,13.49
2023-04-29T17:11:18.954Z,13.19
2023-04-29T17:13:46.545Z,12.92
2023-04-29T17:16:16.980Z,12.67
2023-04-29T17:18:43.960Z,12.45
2023-04-29T17:21:10.938Z,12.23
2023-04-29T17:23:37.980Z,12.05
2023-04-29T17:26:05.237Z,11.88
2023-04-29T17:28:32.177Z,11.74
2023-04-29T17:31:01.319Z,11.58
2023-04-29T17:33:35.125Z,11.43
2023-04-29T17:36:03.813Z,11.32
2023-04-29T17:38:34.300Z,11.19
2023-04-29T17:41:04.123Z,11.06
2023-04-29T17:43:35.512Z,10.95
2023-04-29T17:46:02.541Z,10.84
2023-04-29T17:48:29.540Z,10.61
2023-04-29T17:50:56.449Z,10.63
2023-04-29T17:53:23.699Z,10.53
2023-04-29T17:55:50.763Z,10.45
2023-04-29T17:58:17.847Z,10.38
2023-04-29T18:00:46.264Z,10.33
2023-04-29T18:03:13.393Z,10.25
2023-04-29T18:05:40.795Z,10.17
2023-04-29T18:08:07.667Z,10.16
2023-04-29T18:10:34.640Z,10.10
2023-04-29T18:13:03.378Z,10.06
2023-04-29T18:15:30.393Z,9.99
2023-04-29T18:17:57.647Z,9.92
2023-04-29T18:20:24.660Z,9.86
2023-04-29T18:22:52.125Z,9.78
2023-04-29T18:25:19.048Z,9.70
2023-04-29T18:27:46.158Z,9.66
2023-04-29T18:30:14.457Z,9.59
2023-04-29T18:32:41.509Z,9.51
2023-04-29T18:35:09.070Z,9.43
2023-04-29T18:37:35.965Z,9.37
2023-04-29T18:40:02.957Z,9.32
2023-04-29T18:42:30.895Z,9.24
2023-04-29T18:44:57.902Z,9.17
2023-04-29T18:47:24.932Z,9.11
2023-04-29T18:49:52.188Z,9.04
2023-04-29T18:52:19.154Z,8.99
2023-04-29T18:54:46.270Z,8.92
2023-04-29T18:57:13.425Z,8.88
2023-04-29T18:59:40.835Z,8.87
2023-04-29T19:02:08.215Z,8.88
2023-04-29T19:04:35.914Z,8.88
2023-04-29T19:07:03.999Z,8.87
2023-04-29T19:09:33.691Z,8.84
2023-04-29T19:12:03.734Z,8.81
2023-04-29T19:14:34.246Z,8.79
2023-04-29T19:17:01.556Z,8.76
2023-04-29T19:19:28.681Z,8.74
2023-04-29T19:21:57.571Z,8.69
2023-04-29T19:24:24.509Z,8.68
2023-04-29T19:26:51.698Z,8.64
2023-04-29T19:29:18.778Z,8.60
2023-04-29T19:31:46.299Z,8.56
2023-04-29T19:34:13.327Z,8.54
2023-04-29T19:36:40.461Z,8.51
2023-04-29T19:39:08.932Z,8.49
2023-04-29T19:41:36.251Z,8.42
2023-04-29T19:44:04.561Z,8.41
2023-04-29T19:46:31.916Z,8.42
2023-04-29T19:48:59.263Z,8.38
2023-04-29T19:51:26.184Z,8.29
2023-04-29T19:53:55.561Z,8.18
2023-04-29T19:56:23.485Z,8.08
2023-04-29T19:58:50.705Z,8.03
2023-04-29T20:01:18.152Z,8.00
2023-04-29T20:03:45.430Z,7.91
2023-04-29T20:06:12.639Z,7.88
2023-04-29T20:08:40.185Z,7.83
2023-04-29T20:11:07.318Z,7.77
2023-04-29T20:13:34.823Z,7.75
2023-04-29T20:16:01.990Z,7.71
2023-04-29T20:18:29.096Z,7.69
2023-04-29T20:20:56.523Z,7.65
2023-04-29T20:23:23.541Z,7.61
2023-04-29T20:25:50.987Z,7.56
2023-04-29T20:28:18.161Z,7.55
2023-04-29T20:30:45.220Z,7.52
2023-04-29T20:33:12.159Z,7.49
2023-04-29T20:35:39.145Z,7.46
2023-04-29T20:38:07.395Z,7.43
2023-04-29T20:40:34.749Z,7.44
2023-04-29T20:43:01.679Z,7.43
2023-04-29T20:45:28.737Z,7.41
2023-04-29T20:47:56.077Z,7.36
2023-04-29T20:50:23.188Z,7.33
2023-04-29T20:52:50.095Z,7.30
2023-04-29T20:55:17.294Z,7.28
2023-04-29T20:57:44.193Z,7.26
2023-04-29T21:00:12.155Z,7.23
2023-04-29T21:02:39.411Z,7.17
2023-04-29T21:05:06.720Z,7.15
2023-04-29T21:07:33.864Z,7.13
2023-04-29T21:10:01.009Z,7.10
2023-04-29T21:12:28.052Z,7.03
2023-04-29T21:14:55.256Z,7.04
2023-04-29T21:17:22.503Z,7.01
2023-04-29T21:19:49.649Z,6.94
2023-04-29T21:22:16.601Z,6.93
2023-04-29T21:24:43.584Z,6.90
2023-04-29T21:27:10.741Z,6.86
2023-04-29T21:29:41.017Z,6.81
2023-04-29T21:32:08.628Z,6.78
2023-04-29T21:34:36.215Z,6.75
2023-04-29T21:37:03.376Z,6.76
2023-04-29T21:39:32.179Z,6.73
2023-04-29T21:42:03.193Z,6.68
2023-04-29T21:44:30.773Z,6.69
2023-04-29T21:47:00.024Z,6.65
2023-04-29T21:49:28.260Z,6.64
2023-04-29T21:51:56.010Z,6.62
2023-04-29T21:54:23.126Z,6.60
2023-04-29T21:56:50.108Z,6.59
2023-04-29T21:59:17.597Z,6.53
2023-04-29T22:01:47.920Z,6.51
2023-04-29T22:04:19.332Z,6.47
2023-04-29T22:06:46.561Z,6.46
2023-04-29T22:09:13.646Z,6.44
2023-04-29T22:11:40.651Z,6.42
2023-04-29T22:14:07.680Z,6.40
2023-04-29T22:16:36.165Z,6.39
2023-04-29T22:19:04.639Z,6.34
2023-04-29T22:21:31.788Z,6.34
2023-04-29T22:23:59.297Z,6.28
2023-04-29T22:26:26.380Z,6.29
2023-04-29T22:28:53.531Z,6.28
2023-04-29T22:31:20.654Z,6.24
2023-04-29T22:33:47.842Z,6.21
2023-04-29T22:36:14.852Z,6.19
2023-04-29T22:38:41.772Z,6.17
2023-04-29T22:41:10.023Z,6.15
2023-04-29T22:43:37.015Z,6.16
2023-04-29T22:46:04.274Z,6.16
2023-04-29T22:48:31.369Z,6.17
2023-04-29T22:50:59.659Z,6.17
2023-04-29T22:53:27.140Z,6.15
2023-04-29T22:55:56.396Z,6.10
2023-04-29T22:58:25.526Z,6.08
2023-04-29T23:00:56.628Z,6.07
2023-04-29T23:03:24.859Z,6.05
2023-04-29T23:05:52.093Z,6.04
2023-04-29T23:08:19.164Z,6.01
2023-04-29T23:10:49.832Z,6.06
2023-04-29T23:13:17.728Z,6.09
2023-04-29T23:15:45.408Z,6.07
2023-04-29T23:18:12.846Z,6.05
2023-04-29T23:20:39.973Z,6.06
2023-04-29T23:23:06.913Z,6.05
2023-04-29T23:25:34.711Z,6.06
2023-04-29T23:28:01.746Z,6.07
2023-04-29T23:30:28.656Z,6.05
2023-04-29T23:32:55.833Z,6.03
2023-04-29T23:35:22.834Z,6.01
2023-04-29T23:37:49.801Z,5.99
2023-04-29T23:40:17.125Z,5.97
2023-04-29T23:42:44.148Z,5.96
2023-04-29T23:45:11.199Z,5.96
2023-04-29T23:47:38.181Z,5.97
2023-04-29T23:50:05.906Z,5.92
2023-04-29T23:52:32.891Z,5.92
2023-04-29T23:55:00.218Z,5.93
2023-04-29T23:57:27.166Z,5.94
2023-04-29T23:59:54.338Z,5.95
